sensor_id;sensor_type;location;lat;lon;timestamp;P1;durP1;ratioP1;P2;durP2;ratioP2
29568;SDS011;16501;51.462;14.346;2023-08-31T00:01:47;5.47;;;3.08;;
29568;SDS011;16501;51.462;14.346;2023-08-31T00:04:13;4.65;;;3.03;;
29568;SDS011;16501;51.462;14.346;2023-08-31T00:06:40;4.45;;;3.00;;
29568;SDS011;16501;51.462;14.346;2023-08-31T00:09:09;3.75;;;2.90;;
29568;SDS011;16501;51.462;14.346;2023-08-31T00:11:35;4.45;;;3.08;;
29568;SDS011;16501;51.462;14.346;2023-08-31T00:14:01;4.20;;;3.33;;
29568;SDS011;16501;51.462;14.346;2023-08-31T00:16:26;3.55;;;3.03;;
29568;SDS011;16501;51.462;14.346;2023-08-31T00:18:52;5.28;;;3.00;;
29568;SDS011;16501;51.462;14.346;2023-08-31T00:21:17;5.80;;;3.40;;
29568;SDS011;16501;51.462;14.346;2023-08-31T00:23:43;3.03;;;2.72;;
29568;SDS011;16501;51.462;14.346;2023-08-31T00:26:08;4.25;;;3.20;;
29568;SDS011;16501;51.462;14.346;2023-08-31T00:28:33;3.83;;;3.38;;
29568;SDS011;16501;51.462;14.346;2023-08-31T00:31:02;4.65;;;3.33;;
29568;SDS011;16501;51.462;14.346;2023-08-31T00:33:30;8.05;;;3.33;;
29568;SDS011;16501;51.462;14.346;2023-08-31T00:36:01;3.55;;;2.95;;
29568;SDS011;16501;51.462;14.346;2023-08-31T00:38:28;3.28;;;2.97;;
29568;SDS011;16501;51.462;14.346;2023-08-31T00:40:53;6.05;;;3.20;;
29568;SDS011;16501;51.462;14.346;2023-08-31T00:43:19;7.80;;;3.17;;
29568;SDS011;16501;51.462;14.346;2023-08-31T00:45:45;5.38;;;3.35;;
29568;SDS011;16501;51.462;14.346;2023-08-31T00:48:12;7.68;;;3.47;;
29568;SDS011;16501;51.462;14.346;2023-08-31T00:50:41;8.55;;;3.78;;
29568;SDS011;16501;51.462;14.346;2023-08-31T00:53:07;5.22;;;3.50;;
29568;SDS011;16501;51.462;14.346;2023-08-31T00:55:32;3.67;;;3.38;;
29568;SDS011;16501;51.462;14.346;2023-08-31T00:57:58;8.35;;;3.70;;
29568;SDS011;16501;51.462;14.346;2023-08-31T01:00:25;6.15;;;3.50;;
29568;SDS011;16501;51.462;14.346;2023-08-31T01:03:05;4.53;;;3.17;;
29568;SDS011;16501;51.462;14.346;2023-08-31T01:08:19;5.28;;;3.38;;
29568;SDS011;16501;51.462;14.346;2023-08-31T01:11:01;6.25;;;3.60;;
29568;SDS011;16501;51.462;14.346;2023-08-31T01:13:40;5.00;;;3.33;;
29568;SDS011;16501;51.462;14.346;2023-08-31T01:16:09;5.50;;;3.45;;
29568;SDS011;16501;51.462;14.346;2023-08-31T01:18:36;4.25;;;3.60;;
29568;SDS011;16501;51.462;14.346;2023-08-31T01:24:02;9.25;;;3.78;;
29568;SDS011;16501;51.462;14.346;2023-08-31T01:26:29;7.00;;;3.75;;
29568;SDS011;16501;51.462;14.346;2023-08-31T01:28:55;4.32;;;3.58;;
29568;SDS011;16501;51.462;14.346;2023-08-31T01:31:21;5.65;;;3.75;;
29568;SDS011;16501;51.462;14.346;2023-08-31T01:33:46;5.38;;;3.67;;
29568;SDS011;16501;51.462;14.346;2023-08-31T01:36:16;3.85;;;3.47;;
29568;SDS011;16501;51.462;14.346;2023-08-31T01:38:47;4.25;;;3.70;;
29568;SDS011;16501;51.462;14.346;2023-08-31T01:41:16;4.30;;;3.75;;
29568;SDS011;16501;51.462;14.346;2023-08-31T01:43:44;4.10;;;3.70;;
29568;SDS011;16501;51.462;14.346;2023-08-31T01:46:11;3.97;;;3.58;;
29568;SDS011;16501;51.462;14.346;2023-08-31T01:48:38;6.07;;;4.05;;
29568;SDS011;16501;51.462;14.346;2023-08-31T01:51:05;4.80;;;3.75;;
29568;SDS011;16501;51.462;14.346;2023-08-31T01:53:30;3.95;;;3.55;;
29568;SDS011;16501;51.462;14.346;2023-08-31T01:55:55;5.30;;;3.80;;
29568;SDS011;16501;51.462;14.346;2023-08-31T01:58:21;3.97;;;3.58;;
29568;SDS011;16501;51.462;14.346;2023-08-31T02:00:47;5.18;;;3.80;;
29568;SDS011;16501;51.462;14.346;2023-08-31T02:03:13;4.72;;;3.50;;
29568;SDS011;16501;51.462;14.346;2023-08-31T02:05:38;4.65;;;3.13;;
29568;SDS011;16501;51.462;14.346;2023-08-31T02:08:03;5.20;;;3.28;;
29568;SDS011;16501;51.462;14.346;2023-08-31T02:10:28;5.57;;;3.47;;
29568;SDS011;16501;51.462;14.346;2023-08-31T02:12:54;4.10;;;3.40;;
29568;SDS011;16501;51.462;14.346;2023-08-31T02:15:19;5.30;;;3.33;;
29568;SDS011;16501;51.462;14.346;2023-08-31T02:17:45;4.47;;;3.50;;
29568;SDS011;16501;51.462;14.346;2023-08-31T02:20:10;4.85;;;3.45;;
29568;SDS011;16501;51.462;14.346;2023-08-31T02:22:36;7.35;;;3.70;;
29568;SDS011;16501;51.462;14.346;2023-08-31T02:25:01;4.50;;;3.85;;
29568;SDS011;16501;51.462;14.346;2023-08-31T02:27:27;3.67;;;3.35;;
29568;SDS011;16501;51.462;14.346;2023-08-31T02:29:52;3.97;;;3.58;;
29568;SDS011;16501;51.462;14.346;2023-08-31T02:32:18;3.72;;;3.30;;
29568;SDS011;16501;51.462;14.346;2023-08-31T02:34:44;5.50;;;3.30;;
29568;SDS011;16501;51.462;14.346;2023-08-31T02:37:09;8.10;;;3.67;;
29568;SDS011;16501;51.462;14.346;2023-08-31T02:39:34;3.80;;;3.40;;
29568;SDS011;16501;51.462;14.346;2023-08-31T02:41:59;5.55;;;3.63;;
29568;SDS011;16501;51.462;14.346;2023-08-31T02:44:25;4.15;;;3.38;;
29568;SDS011;16501;51.462;14.346;2023-08-31T02:46:50;5.68;;;3.78;;
29568;SDS011;16501;51.462;14.346;2023-08-31T02:49:15;6.15;;;3.70;;
29568;SDS011;16501;51.462;14.346;2023-08-31T02:51:40;6.22;;;3.38;;
29568;SDS011;16501;51.462;14.346;2023-08-31T02:54:06;4.32;;;3.70;;
29568;SDS011;16501;51.462;14.346;2023-08-31T02:56:31;3.50;;;3.20;;
29568;SDS011;16501;51.462;14.346;2023-08-31T02:58:57;3.65;;;2.90;;
29568;SDS011;16501;51.462;14.346;2023-08-31T03:01:22;3.45;;;2.72;;
29568;SDS011;16501;51.462;14.346;2023-08-31T03:03:49;3.83;;;2.78;;
29568;SDS011;16501;51.462;14.346;2023-08-31T03:06:16;3.58;;;2.40;;
29568;SDS011;16501;51.462;14.346;2023-08-31T03:08:42;2.35;;;2.08;;
29568;SDS011;16501;51.462;14.346;2023-08-31T03:11:07;2.95;;;2.40;;
29568;SDS011;16501;51.462;14.346;2023-08-31T03:13:33;2.65;;;2.30;;
29568;SDS011;16501;51.462;14.346;2023-08-31T03:15:59;3.25;;;2.40;;
29568;SDS011;16501;51.462;14.346;2023-08-31T03:18:25;2.50;;;2.30;;
29568;SDS011;16501;51.462;14.346;2023-08-31T03:20:50;2.25;;;2.05;;
29568;SDS011;16501;51.462;14.346;2023-08-31T03:23:15;2.30;;;2.10;;
29568;SDS011;16501;51.462;14.346;2023-08-31T03:25:41;2.53;;;2.33;;
29568;SDS011;16501;51.462;14.346;2023-08-31T03:28:07;4.60;;;2.28;;
29568;SDS011;16501;51.462;14.346;2023-08-31T03:30:32;2.85;;;1.80;;
29568;SDS011;16501;51.462;14.346;2023-08-31T03:32:57;2.05;;;1.73;;
29568;SDS011;16501;51.462;14.346;2023-08-31T03:35:22;3.00;;;1.95;;
29568;SDS011;16501;51.462;14.346;2023-08-31T03:37:52;2.83;;;2.05;;
29568;SDS011;16501;51.462;14.346;2023-08-31T03:40:17;3.13;;;1.83;;
29568;SDS011;16501;51.462;14.346;2023-08-31T03:42:43;1.90;;;1.75;;
29568;SDS011;16501;51.462;14.346;2023-08-31T03:45:08;2.90;;;1.95;;
29568;SDS011;16501;51.462;14.346;2023-08-31T03:47:33;2.38;;;1.83;;
29568;SDS011;16501;51.462;14.346;2023-08-31T03:49:59;1.75;;;1.63;;
29568;SDS011;16501;51.462;14.346;2023-08-31T03:52:24;2.30;;;1.90;;
29568;SDS011;16501;51.462;14.346;2023-08-31T03:54:50;2.28;;;2.08;;
29568;SDS011;16501;51.462;14.346;2023-08-31T03:57:16;2.50;;;1.83;;
29568;SDS011;16501;51.462;14.346;2023-08-31T03:59:41;2.20;;;1.80;;
29568;SDS011;16501;51.462;14.346;2023-08-31T04:02:06;2.30;;;2.10;;
29568;SDS011;16501;51.462;14.346;2023-08-31T04:04:32;2.10;;;1.83;;
29568;SDS011;16501;51.462;14.346;2023-08-31T04:06:57;2.42;;;1.70;;
29568;SDS011;16501;51.462;14.346;2023-08-31T04:09:23;2.28;;;1.92;;
29568;SDS011;16501;51.462;14.346;2023-08-31T04:11:48;2.67;;;2.30;;
29568;SDS011;16501;51.462;14.346;2023-08-31T04:14:13;2.42;;;1.77;;
29568;SDS011;16501;51.462;14.346;2023-08-31T04:16:38;1.90;;;1.70;;
29568;SDS011;16501;51.462;14.346;2023-08-31T04:19:04;2.00;;;1.33;;
29568;SDS011;16501;51.462;14.346;2023-08-31T04:21:29;2.17;;;1.58;;
29568;SDS011;16501;51.462;14.346;2023-08-31T04:23:54;3.63;;;2.00;;
29568;SDS011;16501;51.462;14.346;2023-08-31T04:26:19;2.85;;;1.52;;
29568;SDS011;16501;51.462;14.346;2023-08-31T04:28:45;2.90;;;2.45;;
29568;SDS011;16501;51.462;14.346;2023-08-31T04:31:10;2.17;;;1.70;;
29568;SDS011;16501;51.462;14.346;2023-08-31T04:33:37;1.95;;;1.67;;
29568;SDS011;16501;51.462;14.346;2023-08-31T04:36:03;1.85;;;1.60;;
29568;SDS011;16501;51.462;14.346;2023-08-31T04:38:29;2.22;;;1.92;;
29568;SDS011;16501;51.462;14.346;2023-08-31T04:40:57;1.88;;;1.65;;
29568;SDS011;16501;51.462;14.346;2023-08-31T04:43:24;4.55;;;1.45;;
29568;SDS011;16501;51.462;14.346;2023-08-31T04:45:51;2.28;;;1.80;;
29568;SDS011;16501;51.462;14.346;2023-08-31T04:48:16;3.75;;;1.70;;
29568;SDS011;16501;51.462;14.346;2023-08-31T04:50:42;2.35;;;1.60;;
29568;SDS011;16501;51.462;14.346;2023-08-31T04:53:07;2.42;;;1.65;;
29568;SDS011;16501;51.462;14.346;2023-08-31T04:55:32;5.93;;;1.90;;
29568;SDS011;16501;51.462;14.346;2023-08-31T04:57:58;2.17;;;1.75;;
29568;SDS011;16501;51.462;14.346;2023-08-31T05:00:23;2.03;;;1.45;;
29568;SDS011;16501;51.462;14.346;2023-08-31T05:02:48;1.45;;;1.35;;
29568;SDS011;16501;51.462;14.346;2023-08-31T05:05:13;4.28;;;1.55;;
29568;SDS011;16501;51.462;14.346;2023-08-31T05:07:39;2.35;;;1.58;;
29568;SDS011;16501;51.462;14.346;2023-08-31T05:10:04;2.65;;;1.50;;
29568;SDS011;16501;51.462;14.346;2023-08-31T05:12:31;4.55;;;1.40;;
29568;SDS011;16501;51.462;14.346;2023-08-31T05:14:56;1.73;;;1.55;;
29568;SDS011;16501;51.462;14.346;2023-08-31T05:17:21;1.85;;;1.65;;
29568;SDS011;16501;51.462;14.346;2023-08-31T05:19:46;1.95;;;1.50;;
29568;SDS011;16501;51.462;14.346;2023-08-31T05:22:12;1.52;;;1.25;;
29568;SDS011;16501;51.462;14.346;2023-08-31T05:24:37;2.45;;;1.75;;
29568;SDS011;16501;51.462;14.346;2023-08-31T05:27:03;1.75;;;1.40;;
29568;SDS011;16501;51.462;14.346;2023-08-31T05:29:29;3.58;;;1.27;;
29568;SDS011;16501;51.462;14.346;2023-08-31T05:31:54;5.10;;;1.40;;
29568;SDS011;16501;51.462;14.346;2023-08-31T05:34:22;3.47;;;1.55;;
29568;SDS011;16501;51.462;14.346;2023-08-31T05:36:48;4.50;;;1.30;;
29568;SDS011;16501;51.462;14.346;2023-08-31T05:39:13;5.22;;;1.70;;
29568;SDS011;16501;51.462;14.346;2023-08-31T05:41:40;1.77;;;1.67;;
29568;SDS011;16501;51.462;14.346;2023-08-31T05:44:06;1.85;;;1.50;;
29568;SDS011;16501;51.462;14.346;2023-08-31T05:46:31;4.43;;;1.80;;
29568;SDS011;16501;51.462;14.346;2023-08-31T05:48:56;5.32;;;2.00;;
29568;SDS011;16501;51.462;14.346;2023-08-31T05:51:22;3.08;;;1.60;;
29568;SDS011;16501;51.462;14.346;2023-08-31T05:53:47;1.67;;;1.58;;
29568;SDS011;16501;51.462;14.346;2023-08-31T05:56:12;2.15;;;1.50;;
29568;SDS011;16501;51.462;14.346;2023-08-31T05:58:37;2.53;;;2.28;;
29568;SDS011;16501;51.462;14.346;2023-08-31T06:01:03;3.47;;;1.70;;
29568;SDS011;16501;51.462;14.346;2023-08-31T06:03:29;2.58;;;1.60;;
29568;SDS011;16501;51.462;14.346;2023-08-31T06:05:58;2.00;;;1.60;;
29568;SDS011;16501;51.462;14.346;2023-08-31T06:08:24;3.95;;;2.45;;
29568;SDS011;16501;51.462;14.346;2023-08-31T06:10:50;5.63;;;1.90;;
29568;SDS011;16501;51.462;14.346;2023-08-31T06:13:15;3.50;;;2.28;;
29568;SDS011;16501;51.462;14.346;2023-08-31T06:15:41;1.80;;;1.55;;
29568;SDS011;16501;51.462;14.346;2023-08-31T06:18:06;3.80;;;1.80;;
29568;SDS011;16501;51.462;14.346;2023-08-31T06:20:31;3.22;;;1.90;;
29568;SDS011;16501;51.462;14.346;2023-08-31T06:22:57;2.42;;;1.75;;
29568;SDS011;16501;51.462;14.346;2023-08-31T06:25:22;2.92;;;2.00;;
29568;SDS011;16501;51.462;14.346;2023-08-31T06:27:48;3.05;;;1.98;;
29568;SDS011;16501;51.462;14.346;2023-08-31T06:30:13;3.00;;;2.17;;
29568;SDS011;16501;51.462;14.346;2023-08-31T06:32:41;2.60;;;2.28;;
29568;SDS011;16501;51.462;14.346;2023-08-31T06:35:10;5.70;;;3.17;;
29568;SDS011;16501;51.462;14.346;2023-08-31T06:37:36;2.53;;;2.10;;
29568;SDS011;16501;51.462;14.346;2023-08-31T06:40:02;4.18;;;2.70;;
29568;SDS011;16501;51.462;14.346;2023-08-31T06:42:27;3.80;;;2.28;;
29568;SDS011;16501;51.462;14.346;2023-08-31T06:44:52;5.20;;;3.10;;
29568;SDS011;16501;51.462;14.346;2023-08-31T06:47:17;4.15;;;2.80;;
29568;SDS011;16501;51.462;14.346;2023-08-31T06:49:43;3.70;;;2.30;;
29568;SDS011;16501;51.462;14.346;2023-08-31T06:52:08;3.50;;;2.50;;
29568;SDS011;16501;51.462;14.346;2023-08-31T06:54:33;4.45;;;2.80;;
29568;SDS011;16501;51.462;14.346;2023-08-31T06:56:59;5.53;;;2.33;;
29568;SDS011;16501;51.462;14.346;2023-08-31T06:59:24;2.65;;;2.25;;
29568;SDS011;16501;51.462;14.346;2023-08-31T07:01:49;4.28;;;2.38;;
29568;SDS011;16501;51.462;14.346;2023-08-31T07:04:15;3.45;;;2.40;;
29568;SDS011;16501;51.462;14.346;2023-08-31T07:06:40;4.60;;;2.55;;
29568;SDS011;16501;51.462;14.346;2023-08-31T07:09:05;5.63;;;2.65;;
29568;SDS011;16501;51.462;14.346;2023-08-31T07:11:33;4.40;;;2.30;;
29568;SDS011;16501;51.462;14.346;2023-08-31T07:13:58;3.33;;;2.45;;
29568;SDS011;16501;51.462;14.346;2023-08-31T07:16:24;5.10;;;2.58;;
29568;SDS011;16501;51.462;14.346;2023-08-31T07:18:49;6.18;;;2.60;;
29568;SDS011;16501;51.462;14.346;2023-08-31T07:21:14;4.28;;;3.38;;
29568;SDS011;16501;51.462;14.346;2023-08-31T07:23:40;5.75;;;3.08;;
29568;SDS011;16501;51.462;14.346;2023-08-31T07:26:05;4.63;;;3.63;;
29568;SDS011;16501;51.462;14.346;2023-08-31T07:28:30;5.93;;;3.15;;
29568;SDS011;16501;51.462;14.346;2023-08-31T07:31:06;6.93;;;3.08;;
29568;SDS011;16501;51.462;14.346;2023-08-31T07:33:32;3.15;;;2.65;;
29568;SDS011;16501;51.462;14.346;2023-08-31T07:35:59;3.55;;;2.47;;
29568;SDS011;16501;51.462;14.346;2023-08-31T07:38:25;3.72;;;2.33;;
29568;SDS011;16501;51.462;14.346;2023-08-31T07:40:52;5.85;;;3.40;;
29568;SDS011;16501;51.462;14.346;2023-08-31T07:43:17;6.70;;;2.60;;
29568;SDS011;16501;51.462;14.346;2023-08-31T07:45:43;6.95;;;2.72;;
29568;SDS011;16501;51.462;14.346;2023-08-31T07:48:08;3.65;;;3.00;;
29568;SDS011;16501;51.462;14.346;2023-08-31T07:50:33;5.45;;;2.47;;
29568;SDS011;16501;51.462;14.346;2023-08-31T07:52:59;3.38;;;2.55;;
29568;SDS011;16501;51.462;14.346;2023-08-31T07:55:24;6.00;;;3.10;;
29568;SDS011;16501;51.462;14.346;2023-08-31T07:57:50;3.22;;;2.50;;
29568;SDS011;16501;51.462;14.346;2023-08-31T08:00:15;3.47;;;2.60;;
29568;SDS011;16501;51.462;14.346;2023-08-31T08:02:40;6.22;;;2.70;;
29568;SDS011;16501;51.462;14.346;2023-08-31T08:05:08;7.30;;;2.95;;
29568;SDS011;16501;51.462;14.346;2023-08-31T08:07:33;4.43;;;2.15;;
29568;SDS011;16501;51.462;14.346;2023-08-31T08:09:59;5.55;;;2.78;;
29568;SDS011;16501;51.462;14.346;2023-08-31T08:12:24;3.42;;;2.22;;
29568;SDS011;16501;51.462;14.346;2023-08-31T08:14:50;6.78;;;2.28;;
29568;SDS011;16501;51.462;14.346;2023-08-31T08:17:16;8.55;;;2.78;;
29568;SDS011;16501;51.462;14.346;2023-08-31T08:19:41;3.03;;;2.42;;
29568;SDS011;16501;51.462;14.346;2023-08-31T08:22:06;7.25;;;2.75;;
29568;SDS011;16501;51.462;14.346;2023-08-31T08:24:32;5.22;;;2.35;;
29568;SDS011;16501;51.462;14.346;2023-08-31T08:26:57;4.65;;;2.25;;
29568;SDS011;16501;51.462;14.346;2023-08-31T08:29:22;5.13;;;2.33;;
29568;SDS011;16501;51.462;14.346;2023-08-31T08:31:47;3.42;;;2.25;;
29568;SDS011;16501;51.462;14.346;2023-08-31T08:34:13;4.45;;;2.42;;
29568;SDS011;16501;51.462;14.346;2023-08-31T08:36:38;2.88;;;1.90;;
29568;SDS011;16501;51.462;14.346;2023-08-31T08:39:03;4.38;;;2.15;;
29568;SDS011;16501;51.462;14.346;2023-08-31T08:41:29;2.42;;;1.88;;
29568;SDS011;16501;51.462;14.346;2023-08-31T08:43:57;7.95;;;2.50;;
29568;SDS011;16501;51.462;14.346;2023-08-31T08:46:27;6.65;;;2.72;;
29568;SDS011;16501;51.462;14.346;2023-08-31T08:48:52;5.85;;;2.65;;
29568;SDS011;16501;51.462;14.346;2023-08-31T08:51:19;5.80;;;2.92;;
29568;SDS011;16501;51.462;14.346;2023-08-31T08:53:46;3.50;;;1.88;;
29568;SDS011;16501;51.462;14.346;2023-08-31T08:56:11;3.22;;;2.10;;
29568;SDS011;16501;51.462;14.346;2023-08-31T08:58:36;3.63;;;2.15;;
29568;SDS011;16501;51.462;14.346;2023-08-31T09:01:02;6.97;;;2.58;;
29568;SDS011;16501;51.462;14.346;2023-08-31T09:03:32;4.68;;;1.77;;
29568;SDS011;16501;51.462;14.346;2023-08-31T09:05:58;5.15;;;2.10;;
29568;SDS011;16501;51.462;14.346;2023-08-31T09:08:26;4.93;;;2.10;;
29568;SDS011;16501;51.462;14.346;2023-08-31T09:10:53;4.38;;;2.13;;
29568;SDS011;16501;51.462;14.346;2023-08-31T09:13:21;3.75;;;2.30;;
29568;SDS011;16501;51.462;14.346;2023-08-31T09:15:52;6.30;;;2.58;;
29568;SDS011;16501;51.462;14.346;2023-08-31T09:18:24;4.45;;;2.30;;
29568;SDS011;16501;51.462;14.346;2023-08-31T09:20:51;5.13;;;2.40;;
29568;SDS011;16501;51.462;14.346;2023-08-31T09:23:17;4.10;;;2.40;;
29568;SDS011;16501;51.462;14.346;2023-08-31T09:25:46;3.42;;;2.45;;
29568;SDS011;16501;51.462;14.346;2023-08-31T09:28:14;6.17;;;2.03;;
29568;SDS011;16501;51.462;14.346;2023-08-31T09:30:39;3.05;;;2.22;;
29568;SDS011;16501;51.462;14.346;2023-08-31T09:33:15;5.88;;;2.47;;
29568;SDS011;16501;51.462;14.346;2023-08-31T09:36:03;10.27;;;2.53;;
29568;SDS011;16501;51.462;14.346;2023-08-31T09:38:29;4.38;;;2.03;;
29568;SDS011;16501;51.462;14.346;2023-08-31T09:41:03;1.88;;;1.35;;
29568;SDS011;16501;51.462;14.346;2023-08-31T09:43:29;6.32;;;1.50;;
29568;SDS011;16501;51.462;14.346;2023-08-31T09:45:54;2.38;;;1.67;;
29568;SDS011;16501;51.462;14.346;2023-08-31T09:48:20;3.38;;;1.85;;
29568;SDS011;16501;51.462;14.346;2023-08-31T09:50:47;5.05;;;2.22;;
29568;SDS011;16501;51.462;14.346;2023-08-31T09:53:14;4.57;;;2.17;;
29568;SDS011;16501;51.462;14.346;2023-08-31T09:55:48;2.22;;;1.73;;
29568;SDS011;16501;51.462;14.346;2023-08-31T09:58:17;2.10;;;1.52;;
29568;SDS011;16501;51.462;14.346;2023-08-31T10:00:44;4.03;;;1.98;;
29568;SDS011;16501;51.462;14.346;2023-08-31T10:03:10;2.85;;;1.80;;
29568;SDS011;16501;51.462;14.346;2023-08-31T10:05:40;3.42;;;2.10;;
29568;SDS011;16501;51.462;14.346;2023-08-31T10:08:05;8.93;;;2.45;;
29568;SDS011;16501;51.462;14.346;2023-08-31T10:10:32;7.20;;;2.10;;
29568;SDS011;16501;51.462;14.346;2023-08-31T10:12:58;3.72;;;2.25;;
29568;SDS011;16501;51.462;14.346;2023-08-31T10:15:24;6.63;;;2.17;;
29568;SDS011;16501;51.462;14.346;2023-08-31T10:17:56;6.90;;;1.75;;
29568;SDS011;16501;51.462;14.346;2023-08-31T10:20:22;3.28;;;1.90;;
29568;SDS011;16501;51.462;14.346;2023-08-31T10:22:47;4.47;;;2.20;;
29568;SDS011;16501;51.462;14.346;2023-08-31T10:25:13;2.95;;;2.38;;
29568;SDS011;16501;51.462;14.346;2023-08-31T10:27:39;4.88;;;1.65;;
29568;SDS011;16501;51.462;14.346;2023-08-31T10:30:39;3.10;;;1.73;;
29568;SDS011;16501;51.462;14.346;2023-08-31T10:35:41;4.00;;;2.05;;
29568;SDS011;16501;51.462;14.346;2023-08-31T10:46:26;2.65;;;1.67;;
29568;SDS011;16501;51.462;14.346;2023-08-31T10:51:37;7.47;;;1.90;;
29568;SDS011;16501;51.462;14.346;2023-08-31T10:54:20;5.13;;;1.80;;
29568;SDS011;16501;51.462;14.346;2023-08-31T10:59:51;3.88;;;1.88;;
29568;SDS011;16501;51.462;14.346;2023-08-31T11:05:18;4.90;;;2.20;;
29568;SDS011;16501;51.462;14.346;2023-08-31T11:07:47;4.85;;;2.17;;
29568;SDS011;16501;51.462;14.346;2023-08-31T11:12:44;5.10;;;2.40;;
29568;SDS011;16501;51.462;14.346;2023-08-31T11:15:21;3.50;;;2.17;;
29568;SDS011;16501;51.462;14.346;2023-08-31T11:17:51;5.30;;;2.90;;
29568;SDS011;16501;51.462;14.346;2023-08-31T11:20:18;2.72;;;2.22;;
29568;SDS011;16501;51.462;14.346;2023-08-31T11:22:45;3.30;;;2.00;;
29568;SDS011;16501;51.462;14.346;2023-08-31T11:25:13;2.53;;;2.08;;
29568;SDS011;16501;51.462;14.346;2023-08-31T11:27:38;3.22;;;2.33;;
29568;SDS011;16501;51.462;14.346;2023-08-31T11:30:25;3.50;;;2.60;;
29568;SDS011;16501;51.462;14.346;2023-08-31T11:32:51;4.07;;;2.47;;
29568;SDS011;16501;51.462;14.346;2023-08-31T11:35:18;4.63;;;2.70;;
29568;SDS011;16501;51.462;14.346;2023-08-31T11:37:44;3.38;;;2.60;;
29568;SDS011;16501;51.462;14.346;2023-08-31T11:40:10;5.03;;;2.40;;
29568;SDS011;16501;51.462;14.346;2023-08-31T11:42:39;4.38;;;2.40;;
29568;SDS011;16501;51.462;14.346;2023-08-31T11:45:05;4.60;;;2.45;;
29568;SDS011;16501;51.462;14.346;2023-08-31T11:47:31;2.30;;;2.10;;
29568;SDS011;16501;51.462;14.346;2023-08-31T11:49:57;2.60;;;2.20;;
29568;SDS011;16501;51.462;14.346;2023-08-31T11:52:24;6.85;;;2.70;;
29568;SDS011;16501;51.462;14.346;2023-08-31T11:54:51;6.55;;;2.50;;
29568;SDS011;16501;51.462;14.346;2023-08-31T11:57:18;3.38;;;2.63;;
29568;SDS011;16501;51.462;14.346;2023-08-31T11:59:43;5.68;;;2.10;;
29568;SDS011;16501;51.462;14.346;2023-08-31T12:02:09;3.10;;;2.25;;
29568;SDS011;16501;51.462;14.346;2023-08-31T12:04:43;2.58;;;2.35;;
29568;SDS011;16501;51.462;14.346;2023-08-31T12:07:10;4.10;;;2.00;;
29568;SDS011;16501;51.462;14.346;2023-08-31T12:09:35;4.72;;;2.08;;
29568;SDS011;16501;51.462;14.346;2023-08-31T12:12:01;3.53;;;2.33;;
29568;SDS011;16501;51.462;14.346;2023-08-31T12:14:27;3.63;;;1.88;;
29568;SDS011;16501;51.462;14.346;2023-08-31T12:17:00;5.68;;;2.22;;
29568;SDS011;16501;51.462;14.346;2023-08-31T12:19:28;3.38;;;1.95;;
29568;SDS011;16501;51.462;14.346;2023-08-31T12:21:54;4.38;;;2.10;;
29568;SDS011;16501;51.462;14.346;2023-08-31T12:24:19;7.18;;;2.25;;
29568;SDS011;16501;51.462;14.346;2023-08-31T12:26:47;5.63;;;2.08;;
29568;SDS011;16501;51.462;14.346;2023-08-31T12:29:12;6.55;;;2.13;;
29568;SDS011;16501;51.462;14.346;2023-08-31T12:31:37;2.75;;;1.80;;
29568;SDS011;16501;51.462;14.346;2023-08-31T12:34:03;1.40;;;1.27;;
29568;SDS011;16501;51.462;14.346;2023-08-31T12:36:31;6.30;;;1.55;;
29568;SDS011;16501;51.462;14.346;2023-08-31T12:38:56;1.50;;;1.40;;
29568;SDS011;16501;51.462;14.346;2023-08-31T12:41:23;1.45;;;1.10;;
29568;SDS011;16501;51.462;14.346;2023-08-31T12:43:49;5.45;;;1.90;;
29568;SDS011;16501;51.462;14.346;2023-08-31T12:46:14;1.33;;;1.23;;
29568;SDS011;16501;51.462;14.346;2023-08-31T12:48:39;1.60;;;1.50;;
29568;SDS011;16501;51.462;14.346;2023-08-31T12:51:05;1.92;;;1.63;;
29568;SDS011;16501;51.462;14.346;2023-08-31T12:53:30;2.08;;;1.20;;
29568;SDS011;16501;51.462;14.346;2023-08-31T12:55:56;2.17;;;1.13;;
29568;SDS011;16501;51.462;14.346;2023-08-31T12:58:21;2.03;;;1.15;;
29568;SDS011;16501;51.462;14.346;2023-08-31T13:00:49;1.60;;;1.23;;
29568;SDS011;16501;51.462;14.346;2023-08-31T13:03:25;2.72;;;1.20;;
29568;SDS011;16501;51.462;14.346;2023-08-31T13:05:50;1.25;;;1.00;;
29568;SDS011;16501;51.462;14.346;2023-08-31T13:08:16;1.35;;;1.00;;
29568;SDS011;16501;51.462;14.346;2023-08-31T13:10:41;3.38;;;1.10;;
29568;SDS011;16501;51.462;14.346;2023-08-31T13:13:15;2.15;;;1.50;;
29568;SDS011;16501;51.462;14.346;2023-08-31T13:15:41;1.25;;;1.15;;
29568;SDS011;16501;51.462;14.346;2023-08-31T13:18:06;2.17;;;1.30;;
29568;SDS011;16501;51.462;14.346;2023-08-31T13:20:31;1.50;;;1.10;;
29568;SDS011;16501;51.462;14.346;2023-08-31T13:22:57;2.38;;;1.25;;
29568;SDS011;16501;51.462;14.346;2023-08-31T13:25:22;1.95;;;1.17;;
29568;SDS011;16501;51.462;14.346;2023-08-31T13:27:47;3.65;;;1.30;;
29568;SDS011;16501;51.462;14.346;2023-08-31T13:30:13;1.48;;;1.30;;
29568;SDS011;16501;51.462;14.346;2023-08-31T13:32:38;1.45;;;1.15;;
29568;SDS011;16501;51.462;14.346;2023-08-31T13:35:03;2.47;;;1.30;;
29568;SDS011;16501;51.462;14.346;2023-08-31T13:37:32;1.90;;;1.50;;
29568;SDS011;16501;51.462;14.346;2023-08-31T13:39:58;6.32;;;1.65;;
29568;SDS011;16501;51.462;14.346;2023-08-31T13:42:23;3.35;;;1.90;;
29568;SDS011;16501;51.462;14.346;2023-08-31T13:44:48;6.03;;;2.10;;
29568;SDS011;16501;51.462;14.346;2023-08-31T13:47:14;11.95;;;4.38;;
29568;SDS011;16501;51.462;14.346;2023-08-31T13:49:39;2.30;;;1.60;;
29568;SDS011;16501;51.462;14.346;2023-08-31T13:52:04;1.90;;;1.38;;
29568;SDS011;16501;51.462;14.346;2023-08-31T13:54:30;5.22;;;1.77;;
29568;SDS011;16501;51.462;14.346;2023-08-31T13:56:58;2.22;;;1.45;;
29568;SDS011;16501;51.462;14.346;2023-08-31T13:59:23;1.20;;;1.08;;
29568;SDS011;16501;51.462;14.346;2023-08-31T14:01:48;1.70;;;1.40;;
29568;SDS011;16501;51.462;14.346;2023-08-31T14:04:14;1.70;;;1.60;;
29568;SDS011;16501;51.462;14.346;2023-08-31T14:06:39;3.13;;;1.30;;
29568;SDS011;16501;51.462;14.346;2023-08-31T14:09:04;2.55;;;1.40;;
29568;SDS011;16501;51.462;14.346;2023-08-31T14:11:33;2.80;;;1.70;;
29568;SDS011;16501;51.462;14.346;2023-08-31T14:14:02;2.65;;;1.40;;
29568;SDS011;16501;51.462;14.346;2023-08-31T14:16:34;1.73;;;1.33;;
29568;SDS011;16501;51.462;14.346;2023-08-31T14:19:01;3.15;;;1.52;;
29568;SDS011;16501;51.462;14.346;2023-08-31T14:21:26;2.67;;;1.30;;
29568;SDS011;16501;51.462;14.346;2023-08-31T14:23:51;2.13;;;1.40;;
29568;SDS011;16501;51.462;14.346;2023-08-31T14:26:20;3.75;;;1.73;;
29568;SDS011;16501;51.462;14.346;2023-08-31T14:28:45;3.08;;;1.60;;
29568;SDS011;16501;51.462;14.346;2023-08-31T14:31:11;3.65;;;1.40;;
29568;SDS011;16501;51.462;14.346;2023-08-31T14:33:36;1.65;;;1.35;;
29568;SDS011;16501;51.462;14.346;2023-08-31T14:36:01;4.22;;;1.63;;
29568;SDS011;16501;51.462;14.346;2023-08-31T14:38:26;1.75;;;1.35;;
29568;SDS011;16501;51.462;14.346;2023-08-31T14:40:53;2.90;;;1.50;;
29568;SDS011;16501;51.462;14.346;2023-08-31T14:43:19;2.30;;;1.60;;
29568;SDS011;16501;51.462;14.346;2023-08-31T14:45:44;5.90;;;1.60;;
29568;SDS011;16501;51.462;14.346;2023-08-31T14:48:10;2.60;;;1.50;;
29568;SDS011;16501;51.462;14.346;2023-08-31T14:50:35;2.78;;;1.70;;
29568;SDS011;16501;51.462;14.346;2023-08-31T14:53:00;2.75;;;1.90;;
29568;SDS011;16501;51.462;14.346;2023-08-31T14:55:25;2.08;;;1.73;;
29568;SDS011;16501;51.462;14.346;2023-08-31T14:57:51;1.83;;;1.63;;